Time;durP1;ratioP1;P1;durP2;ratioP2;P2;SDS_P1;SDS_P2;PMS_P1;PMS_P2;Temp;Humidity;BMP_temperature;BMP_pressure;BME280_temperature;BME280_humidity;BME280_pressure;Samples;Min_cycle;Max_cycle;Signal;HPM_P1;HPM_P2
2023/05/01 00:00:03;;;;;;;9.32;6.63;;;;;;;6.64;93.24;98341.34;7349101;19;20022;-71
2023/05/01 00:02:32;;;;;;;10.68;7.10;;;;;;;6.65;93.51;98352.78;7345801;19;20018;-70
2023/05/01 00:04:57;;;;;;;10.68;6.68;;;;;;;6.67;93.52;98356.97;7350387;19;20018;-75
2023/05/01 00:07:23;;;;;;;11.07;7.45;;;;;;;6.68;93.43;98363.97;7344592;19;20019;-71
2023/05/01 00:09:48;;;;;;;11.70;6.78;;;;;;;6.70;93.54;98362.03;7347213;19;20038;-73
2023/05/01 00:12:12;;;;;;;7.95;6.35;;;;;;;6.74;93.61;98358.22;7348830;19;20010;-76
2023/05/01 00:14:37;;;;;;;8.95;6.53;;;;;;;6.79;93.54;98356.03;7348400;19;20014;-77
2023/05/01 00:17:02;;;;;;;9.93;7.30;;;;;;;6.81;93.37;98359.41;7346295;19;20017;-77
2023/05/01 00:19:26;;;;;;;9.90;7.40;;;;;;;6.85;93.43;98352.94;7346739;19;20010;-73
2023/05/01 00:21:51;;;;;;;9.40;6.80;;;;;;;6.88;93.67;98365.91;7351522;19;20041;-74
2023/05/01 00:24:16;;;;;;;9.57;7.07;;;;;;;6.90;93.51;98379.06;7348131;19;20041;-71
2023/05/01 00:26:41;;;;;;;9.70;7.30;;;;;;;6.94;93.65;98385.81;7345829;19;20082;-76
2023/05/01 00:29:06;;;;;;;9.23;6.78;;;;;;;6.97;93.48;98395.34;7348173;19;20022;-71
2023/05/01 00:31:30;;;;;;;10.07;6.85;;;;;;;7.00;93.58;98380.03;7345170;19;20014;-70
2023/05/01 00:33:55;;;;;;;8.88;6.65;;;;;;;7.01;93.59;98376.41;7346149;19;20074;-69
2023/05/01 00:36:20;;;;;;;12.30;7.50;;;;;;;7.04;93.34;98372.69;7347879;19;20022;-69
2023/05/01 00:38:45;;;;;;;10.52;7.35;;;;;;;7.04;93.42;98364.75;7352104;19;20022;-70
2023/05/01 00:41:09;;;;;;;12.23;7.57;;;;;;;7.05;93.45;98367.28;7346614;19;20041;-70
2023/05/01 00:43:35;;;;;;;10.20;6.50;;;;;;;7.06;93.23;98347.78;7347832;19;20047;-69
2023/05/01 00:46:00;;;;;;;10.63;6.45;;;;;;;7.06;93.18;98346.94;7345924;19;20462;-66
2023/05/01 00:48:26;;;;;;;10.82;7.65;;;;;;;7.06;93.35;98352.22;7346288;19;20010;-68
2023/05/01 00:50:53;;;;;;;9.05;6.93;;;;;;;7.10;93.29;98343.09;7343562;19;20006;-67
2023/05/01 00:53:17;;;;;;;8.65;7.10;;;;;;;7.07;92.91;98322.13;7343326;19;20010;-68
2023/05/01 00:55:42;;;;;;;12.27;7.30;;;;;;;7.02;93.10;98311.88;7345268;19;20022;-70
2023/05/01 00:58:09;;;;;;;10.13;7.18;;;;;;;7.00;92.94;98329.69;7347667;19;20030;-69
2023/05/01 01:00:33;;;;;;;8.93;6.47;;;;;;;6.99;93.05;98343.09;7340699;19;20121;-70
2023/05/01 01:02:58;;;;;;;11.35;6.97;;;;;;;6.95;93.15;98360.16;7344603;19;20078;-67
2023/05/01 01:05:29;;;;;;;8.75;6.50;;;;;;;6.96;93.10;98372.47;7345929;19;20082;-67
2023/05/01 01:08:18;;;;;;;9.18;6.65;;;;;;;6.94;93.25;98383.16;7345709;19;20022;-70
2023/05/01 01:11:03;;;;;;;8.52;6.60;;;;;;;6.97;93.25;98395.34;7347470;19;20122;-69
2023/05/01 01:13:31;;;;;;;;;;;;;;;7.09;93.43;98403.19;7344124;19;20014;-70
2023/05/01 01:16:11;;;;;;;7.18;5.10;;;;;;;7.04;93.16;98385.94;7344429;19;19910;-69
2023/05/01 01:18:55;;;;;;;8.18;6.45;;;;;;;7.05;92.97;98383.19;7344596;19;20018;-70
2023/05/01 01:21:30;;;;;;;9.07;6.27;;;;;;;7.01;92.96;98364.97;7343599;19;20478;-68
2023/05/01 01:24:26;;;;;;;8.50;5.88;;;;;;;7.07;93.20;98361.88;7345240;19;20018;-64
2023/05/01 01:27:29;;;;;;;8.57;5.88;;;;;;;7.10;93.35;98349.25;7343311;19;20438;-66
2023/05/01 01:30:19;;;;;;;10.02;6.53;;;;;;;7.05;92.99;98346.09;7344868;19;20007;-67
2023/05/01 01:33:05;;;;;;;8.05;6.65;;;;;;;7.03;93.06;98315.38;7344112;19;20022;-66
2023/05/01 01:35:32;;;;;;;12.75;9.45;;;;;;;7.02;92.84;98297.78;7342784;19;20021;-69
2023/05/01 01:38:06;;;;;;;11.63;8.75;;;;;;;7.06;93.14;98308.03;7343548;19;20018;-70
2023/05/01 01:40:54;;;;;;;11.63;8.65;;;;;;;7.08;93.29;98327.31;7344080;19;20323;-68
2023/05/01 01:43:22;;;;;;;10.75;7.45;;;;;;;6.96;92.50;98330.06;7343987;19;20476;-67
2023/05/01 01:45:52;;;;;;;11.10;7.70;;;;;;;6.96;92.35;98322.13;7344462;19;20015;-67
2023/05/01 01:48:23;;;;;;;8.07;6.85;;;;;;;6.97;92.40;98316.69;7342875;19;20077;-68
2023/05/01 01:50:48;;;;;;;8.25;6.13;;;;;;;6.97;92.21;98308.75;7344742;19;20027;-66
2023/05/01 01:53:16;;;;;;;7.82;6.38;;;;;;;6.97;92.64;98306.09;7343139;19;20037;-68
2023/05/01 01:55:45;;;;;;;16.27;7.20;;;;;;;6.99;92.50;98316.59;7342151;19;20010;-67
2023/05/01 01:58:12;;;;;;;8.90;6.25;;;;;;;6.99;92.53;98330.69;7343460;19;20014;-66
2023/05/01 02:00:40;;;;;;;8.82;6.53;;;;;;;7.00;92.30;98320.94;7342299;19;20017;-66
2023/05/01 02:03:08;;;;;;;9.18;6.25;;;;;;;7.02;92.73;98311.88;7342632;19;20834;-67
2023/05/01 02:05:34;;;;;;;8.65;6.40;;;;;;;7.05;92.87;98313.44;7340248;19;20094;-67
2023/05/01 02:07:59;;;;;;;10.25;5.93;;;;;;;7.01;92.81;98323.44;7338183;19;20029;-70
2023/05/01 02:10:26;;;;;;;8.15;5.57;;;;;;;7.03;92.65;98323.31;7341023;19;20337;-69
2023/05/01 02:12:54;;;;;;;10.73;6.45;;;;;;;7.05;92.91;98319.59;7343365;19;20007;-69
2023/05/01 02:15:20;;;;;;;11.45;6.55;;;;;;;7.06;92.64;98317.78;7343662;19;20364;-68
2023/05/01 02:17:45;;;;;;;7.45;5.72;;;;;;;7.08;92.63;98313.22;7340283;19;20504;-68
2023/05/01 02:20:11;;;;;;;7.75;5.70;;;;;;;7.03;92.62;98283.56;7340178;19;20346;-66
2023/05/01 02:22:39;;;;;;;9.70;5.82;;;;;;;7.07;92.47;98290.31;7343220;19;20014;-68
2023/05/01 02:25:08;;;;;;;18.48;8.52;;;;;;;7.11;92.36;98297.91;7342441;19;20021;-70
2023/05/01 02:27:37;;;;;;;9.43;6.75;;;;;;;7.13;92.52;98306.56;7336811;19;20015;-69
2023/05/01 02:30:04;;;;;;;7.20;5.43;;;;;;;7.15;92.40;98327.66;7340739;19;20013;-69
2023/05/01 02:32:30;;;;;;;7.45;5.13;;;;;;;7.15;92.15;98344.41;7341069;19;20183;-69
2023/05/01 02:34:59;;;;;;;11.68;6.20;;;;;;;7.09;91.48;98362.59;7340284;19;20018;-68
2023/05/01 02:37:27;;;;;;;7.72;5.50;;;;;;;7.08;91.12;98364.41;7342538;19;20069;-68
2023/05/01 02:39:53;;;;;;;8.70;5.90;;;;;;;7.10;90.93;98380.19;7343851;19;20018;-66
2023/05/01 02:42:22;;;;;;;7.78;5.00;;;;;;;7.13;90.68;98382.59;7341323;19;20022;-68
2023/05/01 02:44:52;;;;;;;7.53;5.65;;;;;;;7.13;90.68;98390.53;7338043;19;20018;-67
2023/05/01 02:47:19;;;;;;;10.68;6.15;;;;;;;7.08;90.21;98387.41;7335702;19;20015;-70
2023/05/01 02:49:46;;;;;;;9.07;6.53;;;;;;;7.09;90.01;98391.75;7338524;19;20014;-68
2023/05/01 02:52:12;;;;;;;7.38;5.35;;;;;;;7.12;90.23;98386.19;7338579;19;20019;-69
2023/05/01 02:54:37;;;;;;;7.15;5.47;;;;;;;7.16;90.15;98395.59;7337704;19;20581;-69
2023/05/01 02:57:04;;;;;;;7.90;5.97;;;;;;;7.21;90.02;98390.81;7336066;19;20030;-66
2023/05/01 02:59:29;;;;;;;8.77;6.03;;;;;;;7.23;90.08;98367.66;7336477;19;20015;-68
2023/05/01 03:01:54;;;;;;;9.65;7.15;;;;;;;7.23;90.28;98367.66;7334856;19;20113;-69
2023/05/01 03:04:19;;;;;;;17.90;7.13;;;;;;;7.25;90.26;98374.53;7339080;19;20237;-66
2023/05/01 03:06:44;;;;;;;9.13;7.20;;;;;;;7.27;90.12;98366.47;7341184;19;20019;-65
2023/05/01 03:09:09;;;;;;;9.27;7.25;;;;;;;7.31;90.02;98352.00;7343601;19;20516;-70
2023/05/01 03:11:34;;;;;;;9.77;7.53;;;;;;;7.40;90.20;98351.28;7345489;19;20010;-74
2023/05/01 03:14:00;;;;;;;7.18;6.00;;;;;;;7.44;90.36;98347.44;7348482;19;20010;-76
2023/05/01 03:16:25;;;;;;;9.25;7.00;;;;;;;7.48;89.98;98338.25;7349218;19;20030;-75
2023/05/01 03:18:50;;;;;;;9.07;6.13;;;;;;;7.46;90.51;98332.22;7351502;19;20014;-72
2023/05/01 03:21:15;;;;;;;9.35;7.05;;;;;;;7.38;90.19;98336.44;7348698;19;20015;-73
2023/05/01 03:23:40;;;;;;;9.35;6.95;;;;;;;7.42;90.18;98345.84;7350053;19;20022;-71
2023/05/01 03:26:06;;;;;;;7.80;6.10;;;;;;;7.38;89.99;98353.19;7346168;19;20323;-73
2023/05/01 03:28:32;;;;;;;8.15;5.70;;;;;;;7.36;89.72;98370.19;7346033;19;20022;-71
2023/05/01 03:30:56;;;;;;;7.40;5.85;;;;;;;7.41;90.07;98374.19;7349693;19;20128;-73
2023/05/01 03:33:21;;;;;;;8.93;6.20;;;;;;;7.42;89.72;98375.88;7345857;19;20395;-73
2023/05/01 03:35:46;;;;;;;7.78;6.03;;;;;;;7.44;90.35;98378.41;7346959;19;20403;-73
2023/05/01 03:38:11;;;;;;;8.20;5.25;;;;;;;7.45;90.33;98370.31;7345361;19;20446;-73
2023/05/01 03:41:11;;;;;;;7.70;5.63;;;;;;;7.44;89.66;98373.94;7342884;19;20403;-72
2023/05/01 03:43:42;;;;;;;8.90;5.43;;;;;;;7.45;89.80;98385.41;7342889;19;20019;-72
2023/05/01 03:46:15;;;;;;;6.95;5.10;;;;;;;7.53;89.90;98382.97;7342659;19;20014;-73
2023/05/01 03:48:40;;;;;;;8.07;5.72;;;;;;;7.56;89.56;98388.03;7343870;19;20037;-72
2023/05/01 03:51:05;;;;;;;6.65;5.68;;;;;;;7.56;89.25;98396.00;7345179;19;20062;-72
2023/05/01 03:53:31;;;;;;;6.28;4.72;;;;;;;7.62;89.56;98388.38;7342962;19;20043;-73
2023/05/01 03:55:57;;;;;;;10.30;5.40;;;;;;;7.64;89.43;98381.16;7343707;19;20010;-73
2023/05/01 03:58:22;;;;;;;5.50;4.35;;;;;;;7.69;89.01;98379.94;7343200;19;20107;-70
2023/05/01 04:00:46;;;;;;;7.43;5.07;;;;;;;7.77;89.30;98382.84;7341955;19;20018;-70
2023/05/01 04:03:11;;;;;;;8.90;5.90;;;;;;;7.84;89.12;98376.06;7342669;19;20035;-73
2023/05/01 04:05:38;;;;;;;9.30;6.45;;;;;;;7.79;88.15;98388.88;7344009;19;20014;-75
2023/05/01 04:08:03;;;;;;;6.07;5.13;;;;;;;7.84;88.18;98376.06;7346220;19;20030;-75
2023/05/01 04:10:28;;;;;;;6.55;5.07;;;;;;;7.85;88.21;98383.91;7345152;19;20018;-74
2023/05/01 04:12:57;;;;;;;8.02;4.93;;;;;;;7.86;87.77;98379.44;7344267;19;20074;-75
2023/05/01 04:15:22;;;;;;;7.88;5.38;;;;;;;7.87;87.98;98381.13;7347399;19;20043;-74
2023/05/01 04:17:47;;;;;;;8.00;5.53;;;;;;;7.97;88.32;98387.38;7345899;19;20027;-73
2023/05/01 04:20:13;;;;;;;8.43;5.35;;;;;;;7.97;87.64;98384.72;7348357;19;20034;-73
2023/05/01 04:22:39;;;;;;;7.22;5.72;;;;;;;7.91;87.52;98383.41;7345483;19;20018;-72
2023/05/01 04:25:04;;;;;;;6.00;5.03;;;;;;;7.96;87.69;98381.22;7345966;19;20037;-73
2023/05/01 04:27:30;;;;;;;7.03;5.10;;;;;;;7.99;87.29;98388.09;7345514;19;20026;-73
2023/05/01 04:29:55;;;;;;;8.55;5.45;;;;;;;8.00;87.64;98387.97;7347673;19;20047;-75
2023/05/01 04:32:21;;;;;;;6.25;5.22;;;;;;;8.00;87.95;98389.78;7346960;19;20081;-73
2023/05/01 04:34:46;;;;;;;8.27;6.07;;;;;;;7.94;86.91;98398.22;7353019;19;20047;-73
2023/05/01 04:37:11;;;;;;;6.20;4.93;;;;;;;7.99;87.34;98396.06;7346998;19;20339;-71
2023/05/01 04:39:36;;;;;;;10.35;5.72;;;;;;;8.05;87.50;98400.00;7346199;19;20018;-71
2023/05/01 04:42:01;;;;;;;9.82;5.97;;;;;;;8.11;87.60;98391.56;7347921;19;20015;-71
2023/05/01 04:44:26;;;;;;;8.20;6.10;;;;;;;8.08;87.08;98395.31;7343462;19;20114;-71
2023/05/01 04:46:51;;;;;;;6.15;5.05;;;;;;;8.11;87.20;98403.03;7342615;19;20026;-72
2023/05/01 04:49:17;;;;;;;8.85;5.75;;;;;;;8.18;87.37;98412.19;7346183;19;20047;-71
2023/05/01 04:51:42;;;;;;;6.95;5.35;;;;;;;8.21;87.65;98419.91;7346774;19;20018;-72
2023/05/01 04:54:10;;;;;;;7.28;4.90;;;;;;;8.28;87.60;98426.38;7344468;19;20013;-71
2023/05/01 04:56:36;;;;;;;7.18;5.32;;;;;;;8.29;86.93;98409.50;7344602;19;20472;-72
2023/05/01 04:59:01;;;;;;;9.43;5.47;;;;;;;8.37;87.22;98411.53;7344270;19;20506;-72
2023/05/01 05:01:27;;;;;;;5.93;4.68;;;;;;;8.43;87.52;98426.16;7342999;19;20046;-71
2023/05/01 05:03:52;;;;;;;6.03;5.25;;;;;;;8.43;86.68;98416.38;7344224;19;20074;-72
2023/05/01 05:06:17;;;;;;;8.50;5.88;;;;;;;8.40;86.01;98421.06;7347494;19;20014;-72
2023/05/01 05:08:42;;;;;;;7.25;5.25;;;;;;;8.37;86.12;98417.69;7350850;19;20046;-75
2023/05/01 05:11:08;;;;;;;6.90;5.13;;;;;;;8.28;85.37;98413.09;7347267;19;20022;-72
2023/05/01 05:13:52;;;;;;;8.77;4.90;;;;;;;8.34;86.54;98404.69;7348407;19;20094;-73
2023/05/01 05:16:17;;;;;;;7.80;5.32;;;;;;;8.42;86.47;98414.69;7342776;19;20021;-69
2023/05/01 05:18:42;;;;;;;8.18;6.05;;;;;;;8.49;87.02;98415.00;7342861;19;20019;-73
2023/05/01 05:21:09;;;;;;;7.70;4.97;;;;;;;8.53;87.07;98417.28;7342222;19;20022;-74
2023/05/01 05:23:34;;;;;;;9.32;5.45;;;;;;;8.56;86.57;98409.06;7342649;19;20080;-74
2023/05/01 05:26:00;;;;;;;9.38;5.72;;;;;;;8.62;86.51;98421.00;7342814;19;20114;-72
2023/05/01 05:28:25;;;;;;;8.02;5.45;;;;;;;8.64;86.72;98408.44;7341673;19;20026;-69
2023/05/01 05:30:50;;;;;;;8.48;5.32;;;;;;;8.70;86.74;98410.56;7343141;19;20019;-68
2023/05/01 05:33:17;;;;;;;6.43;5.28;;;;;;;8.63;85.10;98399.63;7341509;19;20466;-68
2023/05/01 05:35:42;;;;;;;8.05;5.57;;;;;;;8.74;85.34;98406.69;7341951;19;20453;-68
2023/05/01 05:38:07;;;;;;;8.45;5.57;;;;;;;8.81;85.96;98409.66;7341843;19;20016;-69
2023/05/01 05:40:35;;;;;;;7.07;5.35;;;;;;;8.85;85.93;98414.59;7341783;19;20011;-73
2023/05/01 05:42:59;;;;;;;6.43;5.10;;;;;;;8.89;86.14;98418.69;7343264;19;20015;-72
2023/05/01 05:45:26;;;;;;;5.95;4.80;;;;;;;8.95;85.52;98415.50;7344820;19;20018;-75
2023/05/01 05:47:51;;;;;;;7.47;5.50;;;;;;;9.05;85.91;98424.41;7341220;19;20114;-74
2023/05/01 05:50:18;;;;;;;9.35;5.47;;;;;;;9.07;84.80;98433.09;7340945;19;20442;-73
2023/05/01 05:52:44;;;;;;;6.70;5.05;;;;;;;9.13;85.43;98431.75;7341577;19;20018;-72
2023/05/01 05:55:09;;;;;;;6.18;5.00;;;;;;;9.14;85.60;98437.91;7341342;19;20069;-72
2023/05/01 05:57:36;;;;;;;6.78;5.20;;;;;;;9.19;85.86;98446.31;7341287;19;20097;-73
2023/05/01 06:00:04;;;;;;;6.20;4.80;;;;;;;9.24;85.75;98449.44;7340551;19;20031;-73
2023/05/01 06:02:38;;;;;;;8.48;5.13;;;;;;;9.35;85.75;98457.34;7342032;19;20031;-74
2023/05/01 06:05:04;;;;;;;6.55;4.95;;;;;;;9.32;84.28;98460.25;7340454;19;20022;-74
2023/05/01 06:07:29;;;;;;;7.25;4.97;;;;;;;9.31;82.91;98456.75;7340812;19;20576;-73
2023/05/01 06:09:54;;;;;;;7.10;5.20;;;;;;;9.34;82.57;98456.50;7341227;19;20086;-72
2023/05/01 06:12:19;;;;;;;8.02;5.30;;;;;;;9.38;81.99;98449.94;7342280;19;20045;-74
2023/05/01 06:14:43;;;;;;;6.90;5.13;;;;;;;9.37;81.40;98439.41;7342610;19;20018;-75
2023/05/01 06:17:08;;;;;;;9.77;5.00;;;;;;;9.54;82.71;98459.25;7339808;19;20014;-73
2023/05/01 06:19:34;;;;;;;8.20;5.07;;;;;;;9.59;81.69;98460.56;7342346;19;20036;-73
2023/05/01 06:22:06;;;;;;;8.85;5.32;;;;;;;9.63;80.51;98461.97;7341146;19;20033;-74
2023/05/01 06:24:35;;;;;;;9.32;5.55;;;;;;;9.73;81.79;98462.00;7340781;19;20003;-73
2023/05/01 06:27:00;;;;;;;7.57;4.80;;;;;;;9.84;82.01;98457.44;7339921;19;20037;-68
2023/05/01 06:29:25;;;;;;;7.53;4.45;;;;;;;9.96;81.75;98462.66;7339640;19;20014;-67
2023/05/01 06:31:50;;;;;;;7.97;4.85;;;;;;;10.04;82.69;98465.53;7339947;19;20082;-68
2023/05/01 06:34:15;;;;;;;12.32;5.18;;;;;;;10.10;81.20;98475.63;7341289;19;20035;-67
2023/05/01 06:36:48;;;;;;;8.65;4.78;;;;;;;10.17;82.15;98476.75;7340929;19;20061;-69
2023/05/01 06:39:13;;;;;;;10.35;4.80;;;;;;;10.23;81.72;98480.75;7342246;19;20011;-68
2023/05/01 06:41:37;;;;;;;6.20;4.35;;;;;;;10.23;81.36;98478.94;7349331;19;20113;-67
2023/05/01 06:44:02;;;;;;;6.43;4.65;;;;;;;10.29;80.59;98478.38;7348644;19;20015;-72
2023/05/01 06:46:27;;;;;;;6.32;4.40;;;;;;;10.26;78.10;98478.66;7349864;19;20038;-73
2023/05/01 06:48:51;;;;;;;7.10;4.90;;;;;;;10.32;78.29;98486.09;7342422;19;20058;-73
2023/05/01 06:51:16;;;;;;;8.27;4.60;;;;;;;10.36;77.49;98482.19;7339341;19;20032;-73
2023/05/01 06:53:41;;;;;;;16.35;5.13;;;;;;;10.46;77.82;98483.06;7345456;19;20015;-73
2023/05/01 06:56:07;;;;;;;11.75;4.72;;;;;;;10.54;77.35;98491.19;7341647;19;20010;-74
2023/05/01 06:58:31;;;;;;;9.05;5.22;;;;;;;10.70;77.09;98500.50;7339978;19;20051;-73
2023/05/01 07:00:56;;;;;;;6.85;5.25;;;;;;;10.86;76.70;98492.78;7344024;19;20022;-69
2023/05/01 07:03:21;;;;;;;11.10;5.97;;;;;;;10.98;76.20;98506.81;7353306;19;20345;-70
2023/05/01 07:05:46;;;;;;;5.47;4.28;;;;;;;11.12;76.10;98501.06;7351656;19;20007;-68
2023/05/01 07:08:11;;;;;;;6.88;4.60;;;;;;;11.35;76.79;98507.78;7340204;19;20022;-69
2023/05/01 07:10:36;;;;;;;5.47;4.55;;;;;;;11.48;73.67;98510.16;7343316;19;20025;-71
2023/05/01 07:13:00;;;;;;;9.18;4.72;;;;;;;11.64;72.30;98505.06;7342613;19;20010;-70
2023/05/01 07:15:25;;;;;;;9.23;4.18;;;;;;;11.93;72.87;98513.88;7343184;19;20007;-68
2023/05/01 07:17:50;;;;;;;8.43;4.45;;;;;;;12.22;71.98;98507.56;7344121;19;20033;-68
2023/05/01 07:20:15;;;;;;;15.15;5.05;;;;;;;12.65;73.09;98499.72;7340630;19;20015;-69
2023/05/01 07:22:40;;;;;;;6.78;4.57;;;;;;;13.48;71.96;98500.38;7341636;19;20054;-68
2023/05/01 07:25:06;;;;;;;5.22;4.25;;;;;;;15.21;68.97;98499.97;7342119;19;20022;-68
2023/05/01 07:27:30;;;;;;;7.28;4.70;;;;;;;16.42;61.36;98490.06;7339864;19;20031;-69
2023/05/01 07:29:56;;;;;;;9.63;4.90;;;;;;;18.05;58.03;98498.69;7348152;19;20011;-68
2023/05/01 07:32:21;;;;;;;7.10;4.18;;;;;;;19.44;56.16;98499.34;7343786;19;20055;-70
2023/05/01 07:34:46;;;;;;;8.20;4.75;;;;;;;20.17;54.02;98505.38;7341748;19;20011;-70
2023/05/01 07:37:10;;;;;;;4.95;4.32;;;;;;;20.24;51.17;98506.22;7338795;19;20346;-71
2023/05/01 07:39:35;;;;;;;6.63;4.97;;;;;;;19.98;50.96;98508.78;7343278;19;20331;-70
2023/05/01 07:42:00;;;;;;;10.32;4.53;;;;;;;19.53;49.71;98516.28;7338967;19;20088;-69
2023/05/01 07:44:25;;;;;;;7.72;5.20;;;;;;;19.33;50.53;98520.63;7340454;19;20022;-71
2023/05/01 07:46:50;;;;;;;7.78;4.80;;;;;;;19.07;49.58;98519.34;7338973;19;20039;-70
2023/05/01 07:49:15;;;;;;;7.13;4.30;;;;;;;18.95;50.90;98520.88;7340194;19;20150;-71
2023/05/01 07:51:41;;;;;;;6.80;4.72;;;;;;;18.74;50.36;98521.63;7339319;19;20043;-70
2023/05/01 07:54:05;;;;;;;7.05;4.32;;;;;;;18.34;51.16;98520.25;7346332;19;20014;-69
2023/05/01 07:56:30;;;;;;;6.68;3.75;;;;;;;17.77;51.92;98528.94;7344817;19;20081;-69
2023/05/01 07:58:55;;;;;;;10.75;4.88;;;;;;;17.20;51.11;98533.91;7347903;19;20034;-69
2023/05/01 08:01:20;;;;;;;8.02;4.65;;;;;;;16.76;54.13;98536.34;7344298;19;20025;-68
2023/05/01 08:03:45;;;;;;;9.93;4.63;;;;;;;16.24;54.00;98542.25;7346057;19;20014;-71
2023/05/01 08:06:10;;;;;;;11.48;5.63;;;;;;;15.79;55.50;98542.81;7344249;19;20007;-69
2023/05/01 08:08:34;;;;;;;13.50;5.10;;;;;;;15.53;56.46;98550.19;7349867;19;20025;-69
2023/05/01 08:10:59;;;;;;;9.02;4.63;;;;;;;15.17;56.51;98566.59;7346045;19;20011;-72
2023/05/01 08:13:24;;;;;;;10.23;4.75;;;;;;;14.92;57.73;98561.31;7344385;19;20015;-68
2023/05/01 08:15:49;;;;;;;9.43;5.63;;;;;;;14.68;57.04;98560.22;7345382;19;20022;-69
2023/05/01 08:18:19;;;;;;;8.50;5.32;;;;;;;14.53;57.44;98565.38;7344140;19;20021;-68
2023/05/01 08:20:45;;;;;;;8.35;4.90;;;;;;;14.31;57.12;98573.09;7347199;19;20018;-70
2023/05/01 08:23:10;;;;;;;7.90;5.18;;;;;;;14.11;58.50;98569.78;7344066;19;20019;-70
2023/05/01 08:25:35;;;;;;;8.65;5.32;;;;;;;13.93;59.63;98582.41;7345214;19;20027;-70
2023/05/01 08:27:59;;;;;;;8.15;4.85;;;;;;;13.82;58.89;98583.50;7346235;19;20018;-69
2023/05/01 08:30:25;;;;;;;8.60;4.53;;;;;;;13.78;59.35;98587.47;7343514;19;20029;-70
2023/05/01 08:32:49;;;;;;;5.60;3.90;;;;;;;13.72;59.43;98590.78;7346125;19;20129;-68
2023/05/01 08:35:14;;;;;;;5.88;4.50;;;;;;;13.64;59.14;98590.72;7345822;19;20034;-70
2023/05/01 08:37:39;;;;;;;12.10;6.10;;;;;;;13.60;59.33;98600.06;7351664;19;20061;-68
2023/05/01 08:40:07;;;;;;;9.07;4.45;;;;;;;13.43;59.55;98609.78;7345533;19;20327;-69
2023/05/01 08:42:36;;;;;;;9.40;4.30;;;;;;;13.37;59.56;98605.88;7345499;19;20049;-69
2023/05/01 08:45:03;;;;;;;11.07;4.82;;;;;;;13.29;60.65;98618.34;7345812;19;20021;-73
2023/05/01 08:47:30;;;;;;;7.10;4.60;;;;;;;13.08;60.28;98610.56;7342708;19;20014;-75
2023/05/01 08:49:56;;;;;;;8.25;4.63;;;;;;;13.01;60.81;98622.84;7343694;19;20489;-72
2023/05/01 08:52:21;;;;;;;11.38;4.00;;;;;;;12.96;60.62;98619.78;7344626;19;20015;-73
2023/05/01 08:54:49;;;;;;;12.27;4.10;;;;;;;12.97;60.37;98619.63;7342675;19;20023;-71
2023/05/01 08:57:15;;;;;;;7.22;4.43;;;;;;;13.08;60.43;98624.78;7342649;19;20337;-71
2023/05/01 08:59:40;;;;;;;8.32;4.43;;;;;;;13.24;60.45;98617.94;7343600;19;20510;-72
2023/05/01 09:02:07;;;;;;;14.45;4.90;;;;;;;13.34;58.54;98614.19;7341910;19;20015;-73
2023/05/01 09:04:35;;;;;;;8.07;4.00;;;;;;;13.49;59.41;98621.72;7343703;19;20011;-71
2023/05/01 09:07:01;;;;;;;7.45;4.22;;;;;;;13.58;59.21;98626.13;7341649;19;20345;-70
2023/05/01 09:09:29;;;;;;;7.40;4.65;;;;;;;13.66;57.99;98640.44;7345643;19;20018;-71
2023/05/01 09:12:22;;;;;;;8.10;4.10;;;;;;;13.93;57.94;98636.84;7344025;19;20500;-71
2023/05/01 09:14:47;;;;;;;6.80;4.05;;;;;;;13.94;57.50;98635.84;7344178;19;20027;-73
2023/05/01 09:17:12;;;;;;;8.55;4.93;;;;;;;14.04;58.01;98641.09;7342635;19;20027;-73
2023/05/01 09:19:37;;;;;;;7.43;4.70;;;;;;;14.12;58.21;98647.34;7344415;19;20043;-73
2023/05/01 09:22:02;;;;;;;9.55;5.38;;;;;;;14.23;57.37;98648.94;7344622;19;20014;-75
2023/05/01 09:24:27;;;;;;;10.60;4.88;;;;;;;14.32;56.29;98645.34;7347924;19;20022;-73
2023/05/01 09:26:53;;;;;;;11.77;5.40;;;;;;;14.22;56.81;98646.44;7340964;19;20015;-74
2023/05/01 09:29:37;;;;;;;11.23;4.82;;;;;;;14.25;55.41;98652.31;7343803;19;20019;-73
2023/05/01 09:32:23;;;;;;;12.65;5.13;;;;;;;14.17;55.40;98652.25;7341933;19;20026;-74
2023/05/01 09:34:50;;;;;;;7.63;3.75;;;;;;;13.87;56.46;98660.72;7344163;19;20014;-72
2023/05/01 09:37:31;;;;;;;4.78;3.95;;;;;;;13.84;56.32;98643.13;7348954;19;20010;-73
2023/05/01 09:40:07;;;;;;;7.63;4.35;;;;;;;13.68;56.34;98659.03;7343416;19;20020;-73
2023/05/01 09:42:33;;;;;;;6.90;4.50;;;;;;;13.53;55.98;98665.94;7347566;19;20473;-73
2023/05/01 09:45:00;;;;;;;7.43;4.78;;;;;;;13.43;56.49;98660.66;7341186;19;20022;-73
2023/05/01 09:47:28;;;;;;;10.00;4.32;;;;;;;13.36;57.32;98659.56;7341648;19;20045;-74
2023/05/01 09:49:54;;;;;;;8.43;4.05;;;;;;;13.23;58.03;98667.09;7340644;19;20038;-73
2023/05/01 09:52:19;;;;;;;8.60;3.80;;;;;;;13.05;57.55;98657.19;7342679;19;20085;-73
2023/05/01 09:54:44;;;;;;;6.45;4.03;;;;;;;12.94;58.45;98669.91;7340663;19;20036;-73
2023/05/01 09:57:08;;;;;;;10.63;4.40;;;;;;;12.80;58.58;98670.41;7343865;19;20011;-73
2023/05/01 09:59:35;;;;;;;5.57;4.07;;;;;;;12.51;58.32;98671.34;7340451;19;20019;-74
2023/05/01 10:02:00;;;;;;;4.60;3.47;;;;;;;12.36;58.81;98675.47;7340395;19;20035;-68
2023/05/01 10:04:32;;;;;;;8.40;4.22;;;;;;;12.22;59.01;98690.13;7344208;19;20380;-69
2023/05/01 10:07:18;;;;;;;8.65;4.00;;;;;;;11.92;59.30;98693.81;7339559;19;20018;-69
2023/05/01 10:09:43;;;;;;;4.93;3.53;;;;;;;11.80;59.79;98691.41;7341549;19;20010;-67
2023/05/01 10:12:08;;;;;;;6.32;4.00;;;;;;;11.71;61.11;98695.75;7343308;19;20346;-69
2023/05/01 10:14:48;;;;;;;6.85;3.95;;;;;;;11.53;61.03;98702.75;7340387;19;20335;-68
2023/05/01 10:17:19;;;;;;;7.78;3.88;;;;;;;11.50;61.76;98719.91;7341007;19;20027;-69
2023/05/01 10:19:44;;;;;;;7.47;4.85;;;;;;;11.29;61.70;98722.63;7341472;19;20011;-68
2023/05/01 10:22:09;;;;;;;8.57;3.38;;;;;;;11.13;62.03;98725.00;7339598;19;20017;-70
2023/05/01 10:24:35;;;;;;;12.63;4.32;;;;;;;11.09;62.63;98728.91;7341499;19;20011;-69
2023/05/01 10:27:04;;;;;;;4.85;3.30;;;;;;;10.99;62.99;98736.03;7340474;19;20006;-68
2023/05/01 10:29:30;;;;;;;7.20;3.60;;;;;;;10.88;62.84;98739.63;7344603;19;20010;-68
2023/05/01 10:31:56;;;;;;;6.78;4.25;;;;;;;10.70;62.87;98740.38;7342323;19;20099;-68
2023/05/01 10:34:23;;;;;;;4.97;3.38;;;;;;;10.58;63.22;98754.78;7339936;19;20018;-68
2023/05/01 10:37:05;;;;;;;6.50;3.20;;;;;;;10.54;63.33;98752.34;7341273;19;20037;-67
2023/05/01 10:39:34;;;;;;;6.25;3.45;;;;;;;10.36;63.58;98761.09;7340102;19;20337;-66
2023/05/01 10:42:03;;;;;;;5.25;3.55;;;;;;;10.34;63.86;98769.19;7340052;19;20014;-69
2023/05/01 10:44:28;;;;;;;4.78;3.17;;;;;;;10.30;64.13;98773.09;7342572;19;20022;-68
2023/05/01 10:46:53;;;;;;;5.60;2.97;;;;;;;10.23;64.01;98787.06;7339111;19;20019;-69
2023/05/01 10:49:18;;;;;;;6.00;2.65;;;;;;;10.16;64.22;98779.53;7339195;19;20022;-67
2023/05/01 10:51:56;;;;;;;7.38;3.17;;;;;;;10.19;64.66;98797.97;7340939;19;20472;-75
2023/05/01 10:54:23;;;;;;;6.40;2.80;;;;;;;9.98;64.77;98801.53;7339608;19;20025;-74
2023/05/01 10:56:48;;;;;;;7.82;3.20;;;;;;;9.87;64.62;98804.22;7339456;19;20049;-73
2023/05/01 10:59:12;;;;;;;4.38;2.88;;;;;;;9.72;64.72;98803.66;7340788;19;20022;-73
2023/05/01 11:01:44;;;;;;;2.97;2.45;;;;;;;9.74;65.03;98817.69;7342208;19;20039;-71
2023/05/01 11:04:18;;;;;;;3.83;3.10;;;;;;;9.51;64.75;98818.69;7341684;19;20026;-70
2023/05/01 11:07:09;;;;;;;5.07;2.60;;;;;;;9.48;65.20;98834.91;7341721;19;20046;-71
2023/05/01 11:09:45;;;;;;;7.85;3.40;;;;;;;9.38;65.80;98832.13;7344341;19;20003;-74
2023/05/01 11:12:15;;;;;;;9.63;3.50;;;;;;;9.27;66.30;98840.94;7345004;19;20029;-75
2023/05/01 11:14:52;;;;;;;6.57;3.67;;;;;;;9.26;66.57;98847.22;7340430;19;20037;-73
2023/05/01 11:17:40;;;;;;;5.60;2.60;;;;;;;9.19;66.61;98856.69;7343538;19;20010;-72
2023/05/01 11:20:09;;;;;;;3.92;2.13;;;;;;;9.06;67.24;98856.78;7341748;19;20058;-73
2023/05/01 11:22:35;;;;;;;4.40;2.72;;;;;;;8.95;67.44;98854.09;7342026;19;20017;-73
2023/05/01 11:25:04;;;;;;;3.45;2.42;;;;;;;8.81;67.91;98867.59;7338422;19;20028;-74
2023/05/01 11:27:30;;;;;;;4.20;2.65;;;;;;;8.67;68.11;98870.50;7341306;19;20026;-72
2023/05/01 11:29:57;;;;;;;8.10;4.43;;;;;;;8.50;68.34;98876.22;7346450;19;20408;-74
2023/05/01 11:32:26;;;;;;;4.80;3.30;;;;;;;8.35;69.08;98864.94;7349146;19;20465;-74
2023/05/01 11:34:51;;;;;;;3.42;2.55;;;;;;;8.29;69.11;98863.56;7349427;19;20043;-67
2023/05/01 11:37:16;;;;;;;4.68;2.92;;;;;;;8.23;69.54;98877.31;7348340;19;20019;-66